Pittsburgh, Pennsylvania
Traffic Map
Current Weather Conditions
Pittsburgh, Pennsylvania
Clear
Clear
84°
Feels Like: 85°
Wind Chill: 84° Ceiling: Unl
Heat Index: 85° Visibility: 10mi
Dew Point: 63° Wind: 5mph
Humidity: 49% Direction: 10° (N)
Pressure: 30.2in Gusts: 0mph
Raw Report DataKAGC 291953Z 01004KT 10SM CLR 29/17 A3020 RMK AO2 SLP221 T02890172
Traffic Incident Summary
Active as of:
Severity:
Category:
InformationThere was an issue retrieving the traffic information for this location. Please try a different location or try again shortly.
Advertisements
Track Severe Weather on mobile